Time;durP1;ratioP1;P1;durP2;ratioP2;P2;SDS_P1;SDS_P2;PMS_P1;PMS_P2;Temp;Humidity;BMP_temperature;BMP_pressure;BME280_temperature;BME280_humidity;BME280_pressure;Samples;Min_cycle;Max_cycle;Signal;HPM_P1;HPM_P2
2022/07/31 00:00:51;;;;;;;10.25;6.10;;;;;;;22.63;53.89;101628.09;4975157;28;20035;-85
2022/07/31 00:03:16;;;;;;;8.70;6.30;;;;;;;22.50;54.09;101625.72;4958791;28;20340;-85
2022/07/31 00:05:42;;;;;;;10.43;6.07;;;;;;;22.42;54.79;101616.09;4975076;28;20487;-85
2022/07/31 00:08:08;;;;;;;9.60;6.10;;;;;;;22.43;55.19;101620.53;4976515;28;20443;-85
2022/07/31 00:10:33;;;;;;;10.70;6.43;;;;;;;22.50;55.18;101622.16;4959081;28;20077;-85
2022/07/31 00:12:58;;;;;;;9.00;6.57;;;;;;;22.30;55.08;101611.00;4976143;28;20113;-85
2022/07/31 00:15:24;;;;;;;12.15;6.50;;;;;;;22.25;55.05;101603.06;4975900;28;20031;-85
2022/07/31 00:17:49;;;;;;;10.73;6.53;;;;;;;22.29;55.64;101628.97;4958407;28;20046;-85
2022/07/31 00:20:16;;;;;;;10.18;6.60;;;;;;;22.22;56.19;101621.97;4975717;28;20027;-85
2022/07/31 00:22:43;;;;;;;9.95;6.47;;;;;;;22.26;55.90;101623.66;4975863;28;20035;-85
2022/07/31 00:25:10;;;;;;;11.25;6.53;;;;;;;22.06;56.29;101594.53;4975615;28;20073;-85
2022/07/31 00:27:36;;;;;;;9.13;6.70;;;;;;;22.17;55.81;101605.06;4973947;28;20468;-85
2022/07/31 00:30:03;;;;;;;13.38;6.75;;;;;;;22.18;56.05;101612.19;4973878;28;20085;-85
2022/07/31 00:32:28;;;;;;;15.43;6.80;;;;;;;22.02;57.46;101602.72;4975146;28;20035;-85
2022/07/31 00:34:53;;;;;;;14.07;7.30;;;;;;;22.03;57.35;101615.25;4974205;28;20356;-85
2022/07/31 00:37:19;;;;;;;12.57;7.20;;;;;;;21.78;57.98;101599.69;4974277;28;20030;-84
2022/07/31 00:39:44;;;;;;;9.90;6.68;;;;;;;21.82;57.74;101609.47;4973992;28;20113;-85
2022/07/31 00:42:20;;;;;;;13.32;7.38;;;;;;;21.78;57.82;101613.13;4975535;28;20061;-85
2022/07/31 00:44:46;;;;;;;13.57;7.50;;;;;;;21.82;57.64;101617.53;4976115;28;20034;-84
2022/07/31 00:47:12;;;;;;;10.90;6.82;;;;;;;21.85;57.48;101603.13;4974035;28;20106;-84
2022/07/31 00:49:37;;;;;;;10.80;7.00;;;;;;;22.01;57.05;101615.25;4975179;28;20026;-84
2022/07/31 00:52:03;;;;;;;11.07;6.72;;;;;;;22.11;57.35;101610.56;4974566;28;20030;-84
2022/07/31 00:54:29;;;;;;;16.08;7.30;;;;;;;22.04;57.12;101611.63;4974864;28;20038;-85
2022/07/31 00:56:54;;;;;;;10.68;7.55;;;;;;;22.07;56.83;101611.56;4974163;28;20038;-85
2022/07/31 00:59:20;;;;;;;10.63;6.75;;;;;;;21.96;56.65;101604.63;4973903;28;20452;-85
2022/07/31 01:01:46;;;;;;;11.38;6.65;;;;;;;21.98;56.11;101602.78;4975182;28;20031;-84
2022/07/31 01:04:14;;;;;;;12.23;6.72;;;;;;;21.90;56.43;101591.31;4974688;28;20030;-85
2022/07/31 01:06:39;;;;;;;9.82;6.63;;;;;;;21.97;56.07;101594.75;4973839;28;20031;-85
2022/07/31 01:09:05;;;;;;;12.32;6.50;;;;;;;21.87;55.87;101598.59;4974089;28;20027;-85
2022/07/31 01:11:40;;;;;;;16.00;6.95;;;;;;;21.73;56.58;101597.09;4974935;28;20019;-85
2022/07/31 01:14:07;;;;;;;13.30;6.97;;;;;;;21.63;56.90;101592.88;4974998;28;20367;-85
2022/07/31 01:16:46;;;;;;;9.40;6.90;;;;;;;21.66;56.67;101602.66;4974956;28;20027;-85
2022/07/31 01:19:26;;;;;;;12.57;7.13;;;;;;;21.60;56.45;101600.13;4975001;28;20085;-85
2022/07/31 01:22:07;;;;;;;11.05;7.25;;;;;;;21.60;56.78;101611.78;4974389;28;20391;-85
2022/07/31 01:24:43;;;;;;;16.75;7.28;;;;;;;21.63;56.74;101614.41;4974682;28;20086;-85
2022/07/31 01:27:29;;;;;;;14.93;7.32;;;;;;;21.61;56.93;101607.28;4975368;28;20034;-85
2022/07/31 01:29:58;;;;;;;12.00;7.40;;;;;;;21.40;57.94;101611.31;4974169;28;20043;-85
2022/07/31 01:32:28;;;;;;;10.32;7.30;;;;;;;21.41;57.97;101613.09;4974280;28;20027;-85
2022/07/31 01:35:02;;;;;;;14.50;7.78;;;;;;;21.27;58.04;101600.78;4975295;28;20034;-85
2022/07/31 01:37:38;;;;;;;10.70;7.57;;;;;;;21.19;58.72;101599.19;4973722;28;20415;-85
2022/07/31 01:40:19;;;;;;;10.52;6.90;;;;;;;20.99;59.21;101587.06;4975505;28;20138;-85
2022/07/31 01:42:50;;;;;;;12.60;7.55;;;;;;;20.91;59.89;101585.44;4978636;28;20049;-85
2022/07/31 01:45:19;;;;;;;10.85;7.50;;;;;;;20.84;60.18;101592.72;4978267;28;20157;-85
2022/07/31 01:47:47;;;;;;;12.02;7.28;;;;;;;20.93;60.40;101600.59;4978663;28;20054;-85
2022/07/31 01:50:14;;;;;;;14.38;7.55;;;;;;;20.93;59.81;101592.53;4976995;28;20034;-85
2022/07/31 01:52:41;;;;;;;12.70;7.18;;;;;;;20.85;60.54;101599.88;4960681;28;20541;-85
2022/07/31 01:55:09;;;;;;;12.73;7.78;;;;;;;20.81;60.23;101589.22;4978216;28;20034;-85
2022/07/31 01:57:37;;;;;;;13.18;7.60;;;;;;;20.97;59.97;101598.75;4978358;28;20019;-85
2022/07/31 02:00:06;;;;;;;14.02;8.02;;;;;;;20.86;60.16;101598.97;4977836;28;20034;-85
2022/07/31 02:02:33;;;;;;;12.23;7.50;;;;;;;20.86;60.46;101604.34;4978035;28;20019;-84
2022/07/31 02:05:01;;;;;;;11.95;7.43;;;;;;;20.89;60.25;101601.59;4977156;28;20042;-85
2022/07/31 02:07:28;;;;;;;13.15;7.30;;;;;;;20.80;60.18;101606.25;4977553;28;20343;-85
2022/07/31 02:09:56;;;;;;;13.13;7.32;;;;;;;20.84;59.88;101597.22;4976788;28;20426;-85
2022/07/31 02:12:23;;;;;;;14.40;7.90;;;;;;;20.85;60.15;101599.00;4977989;28;20026;-85
2022/07/31 02:14:49;;;;;;;10.27;7.30;;;;;;;20.71;60.45;101596.59;4977615;28;20464;-85
2022/07/31 02:17:16;;;;;;;10.65;7.55;;;;;;;20.69;60.65;101595.75;4976575;28;20027;-85
2022/07/31 02:19:44;;;;;;;15.45;7.60;;;;;;;20.71;60.22;101608.22;4978366;28;20078;-85
2022/07/31 02:22:09;;;;;;;13.00;8.18;;;;;;;20.47;60.14;101565.66;4976594;28;20344;-85
2022/07/31 02:24:35;;;;;;;10.70;7.80;;;;;;;20.57;60.50;101582.53;4978312;28;20054;-85
2022/07/31 02:27:01;;;;;;;14.75;7.75;;;;;;;20.38;61.12;101576.56;4976651;28;20062;-85
2022/07/31 02:29:30;;;;;;;12.05;8.02;;;;;;;20.31;61.41;101565.06;4976135;28;20027;-85
2022/07/31 02:31:57;;;;;;;12.05;7.97;;;;;;;20.29;61.85;101587.47;4977108;28;20034;-85
2022/07/31 02:34:23;;;;;;;14.07;7.80;;;;;;;20.27;61.68;101569.59;4977559;28;20031;-85
2022/07/31 02:36:52;;;;;;;16.15;7.82;;;;;;;20.27;62.03;101591.09;4976307;28;20082;-85
2022/07/31 02:39:19;;;;;;;9.65;7.65;;;;;;;20.22;62.12;101581.34;4978029;28;20034;-85
2022/07/31 02:41:46;;;;;;;12.35;8.10;;;;;;;20.15;62.02;101582.34;4977051;28;20039;-85
2022/07/31 02:44:13;;;;;;;12.50;7.70;;;;;;;20.29;61.61;101593.72;4975961;28;20058;-85
2022/07/31 02:46:39;;;;;;;15.27;7.85;;;;;;;20.38;61.19;101598.03;4977312;28;20031;-85
2022/07/31 02:49:06;;;;;;;15.27;8.35;;;;;;;20.25;61.68;101578.59;4975976;28;20027;-85
2022/07/31 02:51:33;;;;;;;13.15;8.00;;;;;;;20.18;61.78;101577.84;4974617;28;20030;-85
2022/07/31 02:53:58;;;;;;;14.05;8.38;;;;;;;20.27;61.73;101593.75;4976178;28;20055;-85
2022/07/31 02:56:24;;;;;;;13.43;8.65;;;;;;;20.23;61.54;101577.75;4975643;28;20033;-85
2022/07/31 02:58:50;;;;;;;13.60;8.45;;;;;;;20.20;61.60;101570.63;4976834;28;20049;-85
2022/07/31 03:01:15;;;;;;;15.52;8.60;;;;;;;20.07;62.37;101566.38;4977523;28;20031;-85
2022/07/31 03:03:41;;;;;;;13.50;8.85;;;;;;;20.12;62.59;101566.31;4976659;28;20511;-85
2022/07/31 03:06:07;;;;;;;18.63;8.60;;;;;;;20.15;62.11;101560.88;4976963;28;20031;-85
2022/07/31 03:08:33;;;;;;;12.60;8.40;;;;;;;20.19;62.26;101559.94;4976861;28;20033;-85
2022/07/31 03:10:58;;;;;;;20.58;8.93;;;;;;;20.23;61.64;101565.22;4977009;28;20114;-85
2022/07/31 03:13:26;;;;;;;10.82;8.27;;;;;;;20.25;61.95;101576.78;4976821;28;20037;-85
2022/07/31 03:15:54;;;;;;;15.35;9.15;;;;;;;20.10;62.68;101562.78;4975468;28;20110;-85
2022/07/31 03:18:20;;;;;;;11.75;9.02;;;;;;;20.23;62.42;101564.31;4976703;28;20034;-85
2022/07/31 03:20:50;;;;;;;13.48;8.65;;;;;;;20.16;62.11;101541.19;4975468;28;20031;-85
2022/07/31 03:23:18;;;;;;;14.27;8.77;;;;;;;20.24;62.37;101556.25;4975547;28;20363;-85
2022/07/31 03:25:44;;;;;;;11.70;8.10;;;;;;;20.30;62.08;101554.34;4977786;28;20018;-85
2022/07/31 03:28:10;;;;;;;14.05;8.90;;;;;;;20.22;62.53;101554.50;4977791;28;20110;-85
2022/07/31 03:30:36;;;;;;;13.25;9.55;;;;;;;20.05;62.71;101541.38;4975951;28;20030;-85
2022/07/31 03:33:02;;;;;;;18.20;9.25;;;;;;;19.97;63.07;101551.38;4976489;28;20106;-85
2022/07/31 03:35:28;;;;;;;17.70;9.20;;;;;;;19.90;63.96;101560.41;4976559;28;20023;-85
2022/07/31 03:37:54;;;;;;;21.38;9.40;;;;;;;19.77;63.85;101559.72;4976103;28;20034;-85
2022/07/31 03:40:19;;;;;;;12.00;9.05;;;;;;;19.81;64.21;101566.81;4976442;28;20363;-85
2022/07/31 03:42:46;;;;;;;13.88;8.45;;;;;;;19.80;64.13;101557.00;4975101;28;20026;-85
2022/07/31 03:45:12;;;;;;;16.10;8.15;;;;;;;19.75;64.33;101565.13;4975327;28;20041;-85
2022/07/31 03:47:38;;;;;;;11.93;7.93;;;;;;;19.64;64.77;101555.47;4975180;28;20031;-85
2022/07/31 03:50:05;;;;;;;11.77;8.15;;;;;;;19.50;65.49;101561.00;4976285;28;20031;-85
2022/07/31 03:52:31;;;;;;;11.65;8.25;;;;;;;19.44;65.42;101540.56;4958621;28;20102;-85
2022/07/31 03:54:56;;;;;;;15.65;8.43;;;;;;;19.48;65.43;101539.56;4975865;28;20534;-85
2022/07/31 03:57:25;;;;;;;13.98;8.48;;;;;;;19.56;65.28;101560.91;4974842;28;20056;-85
2022/07/31 03:59:51;;;;;;;14.57;8.32;;;;;;;19.64;65.05;101564.41;4976059;28;20052;-85
2022/07/31 04:02:16;;;;;;;14.88;8.35;;;;;;;19.52;65.70;101549.34;4974959;28;20099;-85
2022/07/31 04:04:42;;;;;;;14.80;8.55;;;;;;;19.41;65.61;101540.59;4975988;28;20085;-86
2022/07/31 04:07:08;;;;;;;17.50;9.32;;;;;;;19.46;65.06;101537.84;4976066;28;20102;-85
2022/07/31 04:09:33;;;;;;;13.13;9.13;;;;;;;19.56;64.89;101547.50;4975371;28;20026;-85
2022/07/31 04:11:59;;;;;;;23.42;9.98;;;;;;;19.57;65.02;101554.66;4975485;28;20122;-85
2022/07/31 04:14:24;;;;;;;17.98;10.00;;;;;;;19.77;64.04;101570.44;4974445;28;20031;-85
2022/07/31 04:16:50;;;;;;;12.95;9.23;;;;;;;19.88;64.36;101578.34;4974456;28;20038;-85
2022/07/31 04:19:15;;;;;;;15.60;10.05;;;;;;;19.71;63.89;101567.88;4958330;28;20047;-85
2022/07/31 04:21:41;;;;;;;14.77;9.65;;;;;;;19.79;63.98;101571.34;4974906;28;20042;-85
2022/07/31 04:24:07;;;;;;;21.90;9.98;;;;;;;19.58;64.37;101564.47;4975448;28;20062;-85
2022/07/31 04:26:32;;;;;;;12.93;9.57;;;;;;;19.64;64.98;101576.91;4975509;28;20038;-85
2022/07/31 04:28:58;;;;;;;15.80;10.43;;;;;;;19.72;64.48;101588.41;4975154;28;20035;-85
2022/07/31 04:31:23;;;;;;;16.98;9.95;;;;;;;19.46;65.12;101570.88;4975124;28;20031;-85
2022/07/31 04:33:49;;;;;;;19.35;9.88;;;;;;;19.30;65.90;101560.41;4974516;28;20046;-85
2022/07/31 04:36:16;;;;;;;15.52;9.73;;;;;;;19.27;66.09;101572.94;4975345;28;20038;-85
2022/07/31 04:38:42;;;;;;;15.25;9.68;;;;;;;19.27;66.37;101566.69;4975307;28;20046;-85
2022/07/31 04:41:07;;;;;;;13.60;8.85;;;;;;;19.29;66.13;101570.25;4974991;28;20034;-85
2022/07/31 04:43:32;;;;;;;10.95;9.10;;;;;;;19.33;66.63;101574.66;4975410;28;20027;-85
2022/07/31 04:45:58;;;;;;;16.45;9.63;;;;;;;19.37;66.41;101580.84;4973708;28;20080;-85
2022/07/31 04:48:23;;;;;;;15.75;9.00;;;;;;;19.34;66.69;101570.16;4973872;28;20038;-85
2022/07/31 04:50:48;;;;;;;13.05;9.70;;;;;;;19.17;67.48;101557.00;4975131;28;20367;-85
2022/07/31 04:53:14;;;;;;;17.67;9.48;;;;;;;19.12;67.67;101558.88;4975368;28;20391;-84
2022/07/31 04:55:41;;;;;;;19.60;9.25;;;;;;;19.21;67.86;101582.84;4975108;28;20047;-84
2022/07/31 04:58:06;;;;;;;15.23;9.20;;;;;;;19.16;67.62;101557.91;4975314;28;20031;-84
2022/07/31 05:00:31;;;;;;;13.40;8.80;;;;;;;19.16;68.08;101549.88;4975023;28;20030;-84
2022/07/31 05:02:57;;;;;;;16.05;8.52;;;;;;;19.33;68.04;101580.00;4973805;28;20027;-85
2022/07/31 05:05:23;;;;;;;11.82;7.75;;;;;;;19.32;67.89;101567.53;4973996;28;20038;-85
2022/07/31 05:07:48;;;;;;;14.05;8.05;;;;;;;19.49;68.00;101578.91;4974965;28;20031;-84
2022/07/31 05:11:21;;;;;;;12.30;7.60;;;;;;;19.48;68.17;101577.09;4973884;28;20081;-84
2022/07/31 05:12:59;;;;;;;10.18;7.15;;;;;;;19.49;68.06;101576.22;4974736;28;20031;-84
2022/07/31 05:15:24;;;;;;;12.98;6.72;;;;;;;19.44;68.18;101551.28;4960243;28;20029;-85
2022/07/31 05:17:50;;;;;;;11.75;6.80;;;;;;;19.51;68.53;101569.03;4977615;28;20031;-85
2022/07/31 05:20:15;;;;;;;11.63;6.93;;;;;;;19.52;69.05;101577.94;4977868;28;20057;-84
2022/07/31 05:22:41;;;;;;;11.10;6.75;;;;;;;19.43;68.76;101553.97;4978784;28;20053;-84
2022/07/31 05:25:07;;;;;;;10.73;6.55;;;;;;;19.39;69.29;101549.53;4977733;28;20026;-84
2022/07/31 05:27:32;;;;;;;12.05;6.75;;;;;;;19.40;69.46;101565.63;4977556;28;20117;-84
2022/07/31 05:29:57;;;;;;;11.98;6.80;;;;;;;19.29;70.01;101550.59;4978616;28;20031;-84
2022/07/31 05:32:23;;;;;;;10.18;6.80;;;;;;;19.27;70.47;101550.59;4978659;28;20030;-85
2022/07/31 05:34:48;;;;;;;8.95;6.20;;;;;;;19.25;70.40;101544.38;4977935;28;20395;-84
2022/07/31 05:37:14;;;;;;;10.50;6.30;;;;;;;19.24;70.74;101524.75;4977323;28;20543;-84
2022/07/31 05:39:39;;;;;;;9.80;6.10;;;;;;;19.31;71.00;101544.28;4979090;28;20031;-84
2022/07/31 05:42:05;;;;;;;10.90;6.20;;;;;;;19.37;71.10;101543.34;4977397;28;20078;-84
2022/07/31 05:44:30;;;;;;;9.70;6.43;;;;;;;19.30;71.59;101531.81;4978416;28;20073;-84
2022/07/31 05:46:55;;;;;;;12.07;6.45;;;;;;;19.34;71.81;101541.56;4978451;28;20030;-84
2022/07/31 05:49:22;;;;;;;12.10;5.90;;;;;;;19.37;71.81;101551.38;4976930;28;20031;-84
2022/07/31 05:51:52;;;;;;;9.60;5.75;;;;;;;19.32;71.55;101547.88;4978319;28;20050;-84
2022/07/31 05:54:20;;;;;;;7.95;5.82;;;;;;;19.37;71.73;101536.19;4976806;28;20055;-84
2022/07/31 05:56:46;;;;;;;11.45;5.97;;;;;;;19.32;72.07;101551.44;4976952;28;20061;-84
2022/07/31 05:59:11;;;;;;;9.48;5.90;;;;;;;19.38;72.43;101569.22;4978392;28;20435;-83
2022/07/31 06:01:37;;;;;;;9.27;5.80;;;;;;;19.33;72.99;101560.38;4978194;28;20031;-83
2022/07/31 06:04:02;;;;;;;8.45;5.95;;;;;;;19.23;73.11;101548.91;4976834;28;20031;-83
2022/07/31 06:06:28;;;;;;;9.02;5.40;;;;;;;19.32;72.67;101567.53;4976955;28;20031;-84
2022/07/31 06:08:53;;;;;;;10.95;5.80;;;;;;;19.30;72.91;101553.25;4976904;28;20486;-84
2022/07/31 06:11:19;;;;;;;7.40;5.18;;;;;;;19.44;72.60;101570.03;4977869;28;20035;-84
2022/07/31 06:13:45;;;;;;;9.77;5.18;;;;;;;19.44;72.58;101571.81;4977677;28;20026;-84
2022/07/31 06:16:12;;;;;;;10.10;5.50;;;;;;;19.40;72.62;101572.75;4979303;28;20045;-84
2022/07/31 06:18:38;;;;;;;7.15;5.40;;;;;;;19.37;73.27;101559.41;4977324;28;20023;-84
2022/07/31 06:21:03;;;;;;;7.63;5.47;;;;;;;19.31;73.29;101556.81;4977150;28;20078;-84
2022/07/31 06:23:28;;;;;;;9.45;5.53;;;;;;;19.31;72.78;101549.66;4978559;28;20470;-84
2022/07/31 06:25:54;;;;;;;10.63;5.63;;;;;;;19.34;72.93;101552.28;4978535;28;20110;-85
2022/07/31 06:28:19;;;;;;;6.85;5.25;;;;;;;19.31;73.68;101554.13;4977891;28;20104;-85
2022/07/31 06:30:45;;;;;;;7.50;4.85;;;;;;;19.38;72.33;101551.34;4960480;28;20030;-84
2022/07/31 06:33:10;;;;;;;8.27;5.47;;;;;;;19.46;73.88;101556.59;4976493;28;20069;-84
2022/07/31 06:35:35;;;;;;;10.15;5.60;;;;;;;19.48;73.39;101542.25;4977667;28;20035;-84
2022/07/31 06:38:01;;;;;;;8.38;5.55;;;;;;;19.50;73.10;101539.56;4976297;28;20034;-84
2022/07/31 06:40:26;;;;;;;6.38;5.28;;;;;;;19.63;72.87;101554.59;4977200;28;20026;-84
2022/07/31 06:42:52;;;;;;;8.85;5.10;;;;;;;19.48;73.45;101541.38;4975898;28;20517;-84
2022/07/31 06:45:17;;;;;;;8.63;5.28;;;;;;;19.48;73.32;101544.94;4976178;28;20038;-84
2022/07/31 06:47:42;;;;;;;8.30;5.35;;;;;;;19.56;73.20;101547.50;4977535;28;20023;-84
2022/07/31 06:50:08;;;;;;;8.60;5.32;;;;;;;19.72;73.27;101561.59;4960081;28;20038;-84
2022/07/31 06:52:34;;;;;;;8.90;5.45;;;;;;;19.62;73.53;101542.09;4976940;28;20043;-84
2022/07/31 06:55:00;;;;;;;8.52;5.43;;;;;;;19.61;73.48;101544.78;4976381;28;20050;-83
2022/07/31 06:57:25;;;;;;;11.50;6.10;;;;;;;19.62;73.36;101547.47;4975978;28;20035;-84
2022/07/31 06:59:51;;;;;;;9.48;5.78;;;;;;;19.71;73.36;101557.16;4975895;28;20465;-84
2022/07/31 07:02:16;;;;;;;9.00;5.85;;;;;;;19.76;72.70;101550.81;4976717;28;20041;-84
2022/07/31 07:04:41;;;;;;;9.45;6.10;;;;;;;19.83;73.24;101548.91;4976954;28;20037;-84
2022/07/31 07:07:07;;;;;;;11.52;6.43;;;;;;;19.87;73.36;101547.03;4976627;28;20054;-84
2022/07/31 07:09:32;;;;;;;7.85;6.07;;;;;;;20.09;72.35;101553.84;4977472;28;20058;-84
2022/07/31 07:11:58;;;;;;;9.88;6.70;;;;;;;20.17;71.74;101551.00;4976770;28;20022;-84
2022/07/31 07:14:23;;;;;;;11.07;6.57;;;;;;;20.39;71.70;101564.94;4975439;28;20027;-84
2022/07/31 07:16:49;;;;;;;12.45;7.32;;;;;;;20.43;71.26;101563.97;4975606;28;20038;-84
2022/07/31 07:19:14;;;;;;;9.57;7.10;;;;;;;20.41;71.16;101550.56;4976803;28;20035;-84
2022/07/31 07:21:40;;;;;;;11.13;7.00;;;;;;;20.47;71.33;101557.59;4975964;28;20043;-84
2022/07/31 07:24:06;;;;;;;11.63;7.40;;;;;;;20.57;71.21;101561.94;4975308;28;20531;-84
2022/07/31 07:26:31;;;;;;;13.52;8.20;;;;;;;20.56;70.21;101545.88;4976811;28;20113;-84
2022/07/31 07:28:58;;;;;;;13.43;7.95;;;;;;;20.80;69.88;101571.34;4976225;28;20062;-84
2022/07/31 07:31:24;;;;;;;10.65;8.07;;;;;;;20.79;70.63;101562.41;4959704;28;20030;-84
2022/07/31 07:33:50;;;;;;;11.93;8.02;;;;;;;20.82;70.75;101558.78;4976400;28;20046;-85
2022/07/31 07:36:16;;;;;;;13.32;8.40;;;;;;;20.98;69.62;101558.44;4970258;28;20027;-84
2022/07/31 07:38:42;;;;;;;11.40;8.57;;;;;;;21.12;69.43;101560.81;4978468;28;20443;-84
2022/07/31 07:41:07;;;;;;;12.55;9.68;;;;;;;21.23;68.78;101549.81;4975266;28;20031;-85
2022/07/31 07:43:32;;;;;;;13.77;9.38;;;;;;;21.21;69.01;101532.84;4976351;28;20443;-87
2022/07/31 07:45:58;;;;;;;16.15;9.68;;;;;;;21.29;68.30;101541.63;4974893;28;20039;-86
2022/07/31 07:48:26;;;;;;;14.02;9.18;;;;;;;21.37;68.26;101542.38;4958918;28;20035;-87
2022/07/31 07:50:52;;;;;;;13.32;9.02;;;;;;;21.48;68.21;101544.81;4976338;28;20023;-86
2022/07/31 07:53:17;;;;;;;15.02;9.50;;;;;;;21.51;67.80;101547.44;4974825;28;20053;-89
2022/07/31 07:55:45;;;;;;;14.27;9.18;;;;;;;21.44;68.41;101544.00;4958670;28;20069;-92
2022/07/31 07:58:11;;;;;;;14.98;9.20;;;;;;;21.42;68.68;101544.97;4975021;28;20031;-88
2022/07/31 08:00:36;;;;;;;12.77;9.60;;;;;;;21.38;69.03;101535.19;4975078;28;20085;-87
2022/07/31 08:03:04;;;;;;;12.35;9.40;;;;;;;21.43;68.04;101531.47;4974575;28;20091;-87
2022/07/31 08:05:29;;;;;;;14.60;9.43;;;;;;;21.47;68.27;101545.72;4958664;28;20031;-86
2022/07/31 08:07:55;;;;;;;13.93;9.60;;;;;;;21.32;68.40;101528.13;4975344;28;20081;-87
2022/07/31 08:10:20;;;;;;;14.43;9.70;;;;;;;21.28;69.34;101534.47;4974481;28;20034;-86
2022/07/31 08:12:46;;;;;;;14.13;9.55;;;;;;;21.42;68.19;101532.41;4975476;28;20106;-88
2022/07/31 08:15:16;;;;;;;12.25;8.85;;;;;;;21.53;67.91;101521.38;4976534;28;20035;-89
2022/07/31 08:17:41;;;;;;;13.75;9.38;;;;;;;21.62;68.13;101517.56;4976074;28;20046;-86
2022/07/31 08:20:09;;;;;;;13.30;9.40;;;;;;;21.66;68.07;101528.22;4975379;28;20099;-87
2022/07/31 08:22:35;;;;;;;12.98;8.93;;;;;;;21.61;67.83;101515.81;4974162;28;20487;-87
2022/07/31 08:25:00;;;;;;;11.85;8.70;;;;;;;21.75;67.12;101513.66;4958654;28;20038;-88
2022/07/31 08:27:26;;;;;;;11.98;8.63;;;;;;;21.87;66.85;101525.94;4975044;28;20109;-85
2022/07/31 08:29:58;;;;;;;14.38;9.35;;;;;;;21.83;68.13;101506.28;4976035;28;20023;-86
2022/07/31 08:32:25;;;;;;;12.52;8.90;;;;;;;21.81;67.20;101516.22;4975808;28;20027;-84
2022/07/31 08:34:51;;;;;;;12.32;9.50;;;;;;;21.72;67.75;101514.63;4975147;28;20034;-84
2022/07/31 08:37:18;;;;;;;11.02;8.73;;;;;;;21.85;68.14;101538.56;4975130;28;20102;-85
2022/07/31 08:39:49;;;;;;;15.13;9.32;;;;;;;21.69;68.37;101538.91;4974096;28;20082;-91
2022/07/31 08:42:16;;;;;;;12.13;8.80;;;;;;;21.72;68.41;101536.16;4990486;28;20026;-83
2022/07/31 08:44:42;;;;;;;12.25;8.45;;;;;;;21.86;67.95;101540.31;4974978;28;20448;-84
2022/07/31 08:47:10;;;;;;;12.60;7.85;;;;;;;21.91;67.19;101538.38;4973828;28;20042;-85
2022/07/31 08:49:39;;;;;;;10.88;8.05;;;;;;;21.95;67.06;101537.38;4973592;28;20035;-85
2022/07/31 08:52:08;;;;;;;12.00;7.88;;;;;;;21.93;68.25;101536.56;4975646;28;20027;-83
2022/07/31 08:54:34;;;;;;;11.88;8.13;;;;;;;21.99;67.23;101539.06;4973627;28;20463;-84
2022/07/31 08:57:00;;;;;;;10.05;7.63;;;;;;;21.95;67.89;101546.34;4975131;28;20030;-88
2022/07/31 08:59:25;;;;;;;11.93;7.80;;;;;;;21.99;67.57;101544.47;4974148;28;20035;-86
2022/07/31 09:01:51;;;;;;;10.90;8.13;;;;;;;22.00;68.00;101536.34;4941841;28;20035;-88
2022/07/31 09:04:17;;;;;;;10.30;8.05;;;;;;;21.96;67.23;101531.97;4974917;28;20027;-88
2022/07/31 09:06:43;;;;;;;11.43;7.35;;;;;;;22.02;67.73;101541.69;4957601;28;20027;-86
2022/07/31 09:09:08;;;;;;;10.10;7.80;;;;;;;22.06;67.45;101545.22;4974038;28;20031;-86
2022/07/31 09:11:45;;;;;;;10.77;8.00;;;;;;;22.09;67.94;101539.72;4973703;28;20452;-85
2022/07/31 09:14:12;;;;;;;11.95;7.95;;;;;;;22.02;67.92;101530.94;4974917;28;20371;-85
2022/07/31 09:16:49;;;;;;;13.02;8.35;;;;;;;21.87;68.45;101516.03;4973715;28;20027;-85
2022/07/31 09:19:14;;;;;;;10.90;7.63;;;;;;;21.96;68.66;101523.88;4973250;28;20034;-85
2022/07/31 09:21:42;;;;;;;12.63;7.68;;;;;;;21.93;68.36;101520.41;4974821;28;20031;-84
2022/07/31 09:24:09;;;;;;;10.40;7.10;;;;;;;21.98;68.69;101519.38;4975044;28;20059;-86
2022/07/31 09:26:36;;;;;;;10.35;7.90;;;;;;;22.06;67.44;101516.47;4974825;28;20027;-84
2022/07/31 09:29:07;;;;;;;13.93;7.53;;;;;;;22.13;68.32;101528.88;4957522;28;20545;-85
2022/07/31 09:31:33;;;;;;;12.18;7.82;;;;;;;22.21;69.08;101515.22;4973322;28;20037;-84
2022/07/31 09:33:59;;;;;;;13.15;7.68;;;;;;;22.33;67.85;101516.69;4973988;28;20054;-86
2022/07/31 09:36:24;;;;;;;12.02;7.47;;;;;;;22.55;67.24;101530.44;4974996;28;20407;-88
2022/07/31 09:38:50;;;;;;;14.63;6.97;;;;;;;22.70;65.98;101527.31;4973627;28;20375;-88
2022/07/31 09:41:21;;;;;;;9.75;6.65;;;;;;;22.78;65.70;101530.66;4973797;28;20050;-85
2022/07/31 09:44:01;;;;;;;8.23;7.37;;;;;;;22.77;66.15;101526.19;4974630;28;20023;-85
2022/07/31 09:46:48;;;;;;;11.18;6.85;;;;;;;22.84;65.52;101517.03;4975442;28;20349;-86
2022/07/31 09:49:14;;;;;;;11.35;7.13;;;;;;;22.93;65.98;101530.25;4973738;28;20023;-85
2022/07/31 09:51:44;;;;;;;10.23;7.15;;;;;;;22.92;65.33;101519.53;4973929;28;20105;-87
2022/07/31 09:54:39;;;;;;;11.45;6.70;;;;;;;23.30;64.82;101523.75;4974855;28;20368;-84
2022/07/31 09:57:14;;;;;;;10.90;6.75;;;;;;;23.53;63.04;101505.94;4957740;28;20154;-85
2022/07/31 09:59:39;;;;;;;10.63;6.53;;;;;;;23.72;63.19;101508.03;4974630;28;20031;-86
2022/07/31 10:02:07;;;;;;;11.93;7.20;;;;;;;23.68;63.59;101511.75;4977768;28;20095;-88
2022/07/31 10:04:32;;;;;;;10.13;6.60;;;;;;;23.94;61.74;101510.88;4976875;28;20482;-85
2022/07/31 10:06:58;;;;;;;8.25;6.40;;;;;;;24.23;62.14;101512.53;4960757;28;20042;-86
2022/07/31 10:09:25;;;;;;;9.48;6.47;;;;;;;24.49;60.25;101517.03;4960747;28;20085;-86
2022/07/31 10:11:52;;;;;;;12.43;6.65;;;;;;;24.49;60.66;101519.75;4976955;28;20030;-83
2022/07/31 10:14:23;;;;;;;9.75;6.07;;;;;;;24.48;59.74;101522.50;4977486;28;20042;-82
2022/07/31 10:16:53;;;;;;;88.90;7.30;;;;;;;24.50;60.35;101526.06;4978147;28;20035;-85
2022/07/31 10:19:19;;;;;;;8.20;5.63;;;;;;;24.51;59.95;101511.59;4978185;28;20103;-86
2022/07/31 10:21:53;;;;;;;10.40;5.72;;;;;;;24.61;59.31;101515.72;4977821;28;20023;-86
2022/07/31 10:24:21;;;;;;;7.13;5.32;;;;;;;24.58;59.14;101517.63;4978238;28;20019;-86
2022/07/31 10:26:47;;;;;;;11.07;5.53;;;;;;;24.56;59.98;101508.72;4977255;28;20022;-86
2022/07/31 10:29:15;;;;;;;7.63;5.50;;;;;;;24.37;59.91;101508.50;4977496;28;20038;-83
2022/07/31 10:31:41;;;;;;;11.05;5.22;;;;;;;24.37;61.03;101512.09;4960366;28;20039;-86
2022/07/31 10:34:06;;;;;;;9.25;5.53;;;;;;;24.33;60.05;101502.31;4977426;28;20033;-85
2022/07/31 10:36:36;;;;;;;8.05;5.13;;;;;;;24.40;59.74;101493.06;4977299;28;20497;-85
2022/07/31 10:39:15;;;;;;;9.50;5.05;;;;;;;24.44;60.21;101502.81;4976217;28;20031;-85
2022/07/31 10:42:06;;;;;;;6.50;4.80;;;;;;;24.59;59.88;101496.00;4977739;28;20030;-84
2022/07/31 10:44:42;;;;;;;9.35;4.88;;;;;;;24.73;59.36;101500.88;4976618;28;20034;-88
2022/07/31 10:47:15;;;;;;;8.55;4.88;;;;;;;24.81;59.36;101489.78;4976920;28;20065;-85
2022/07/31 10:49:47;;;;;;;8.48;4.82;;;;;;;24.76;58.37;101473.72;4977545;28;20027;-85
2022/07/31 10:52:14;;;;;;;10.32;4.88;;;;;;;24.87;57.69;101492.22;4977861;28;20023;-87
2022/07/31 10:54:44;;;;;;;8.98;4.28;;;;;;;24.95;57.69;101498.22;4977509;28;20367;-88
2022/07/31 10:57:28;;;;;;;7.80;4.40;;;;;;;24.82;57.44;101483.41;4976998;28;20030;-89
2022/07/31 10:59:53;;;;;;;11.63;4.40;;;;;;;24.72;58.10;101482.91;4977588;28;20026;-88
2022/07/31 11:02:31;;;;;;;8.02;4.30;;;;;;;24.67;57.84;101472.25;4975684;28;20165;-86
2022/07/31 11:05:26;;;;;;;7.40;4.10;;;;;;;24.64;58.52;101491.28;4975909;28;20022;-82
2022/07/31 11:08:09;;;;;;;8.38;3.90;;;;;;;24.51;58.68;101484.56;4977023;28;20031;-83
2022/07/31 11:10:34;;;;;;;7.00;4.07;;;;;;;24.42;59.14;101471.41;4977437;28;20058;-83
2022/07/31 11:13:07;;;;;;;6.40;3.80;;;;;;;24.59;59.22;101479.78;4958945;28;20081;-85
2022/07/31 11:15:33;;;;;;;6.28;4.15;;;;;;;24.62;58.79;101481.47;4976779;28;20030;-87
2022/07/31 11:18:18;;;;;;;7.15;4.00;;;;;;;24.88;57.84;101478.66;4975639;28;20034;-87
2022/07/31 11:20:48;;;;;;;6.95;3.90;;;;;;;25.06;57.03;101459.97;4977365;28;20027;-92